createdAt,value
2023-04-04T00:00:20.977Z,3.70
2023-04-04T00:02:48.530Z,3.70
2023-04-04T00:05:16.098Z,3.60
2023-04-04T00:07:45.519Z,3.60
2023-04-04T00:10:12.125Z,3.60
2023-04-04T00:12:39.093Z,3.60
2023-04-04T00:15:06.454Z,3.60
2023-04-04T00:17:33.175Z,3.50
2023-04-04T00:19:59.875Z,3.50
2023-04-04T00:22:27.118Z,3.50
2023-04-04T00:24:53.709Z,3.50
2023-04-04T00:27:20.329Z,3.40
2023-04-04T00:29:47.058Z,3.50
2023-04-04T00:32:13.751Z,3.40
2023-04-04T00:34:40.510Z,3.30
2023-04-04T00:37:07.485Z,3.20
2023-04-04T00:39:34.482Z,3.30
2023-04-04T00:42:01.866Z,3.30
2023-04-04T00:44:30.527Z,3.20
2023-04-04T00:46:57.273Z,3.20
2023-04-04T00:49:23.937Z,3.20
2023-04-04T00:51:50.518Z,3.20
2023-04-04T00:54:17.147Z,3.10
2023-04-04T00:56:43.868Z,3.10
2023-04-04T00:59:10.478Z,3.10
2023-04-04T01:01:37.426Z,3.20
2023-04-04T01:04:04.454Z,3.10
2023-04-04T01:06:32.721Z,3.10
2023-04-04T01:08:59.891Z,3.00
2023-04-04T01:11:28.128Z,2.90
2023-04-04T01:13:55.835Z,3.00
2023-04-04T01:16:24.095Z,2.90
2023-04-04T01:18:52.718Z,2.90
2023-04-04T01:21:21.896Z,2.90
2023-04-04T01:23:54.278Z,2.90
2023-04-04T01:26:24.082Z,2.80
2023-04-04T01:28:50.889Z,2.80
2023-04-04T01:31:26.154Z,2.80
2023-04-04T01:34:00.303Z,2.80
2023-04-04T01:36:31.911Z,2.70
2023-04-04T01:39:25.675Z,2.70
2023-04-04T01:41:52.653Z,2.70
2023-04-04T01:44:19.802Z,2.70
2023-04-04T01:46:46.415Z,2.60
2023-04-04T01:49:13.140Z,2.70
2023-04-04T01:51:40.436Z,2.60
2023-04-04T01:54:07.150Z,2.60
2023-04-04T01:56:34.014Z,2.50
2023-04-04T01:59:01.750Z,2.50
2023-04-04T02:01:28.445Z,2.50
2023-04-04T02:03:55.113Z,2.50
2023-04-04T02:06:22.525Z,2.50
2023-04-04T02:08:49.256Z,2.50
2023-04-04T02:11:16.125Z,2.40
2023-04-04T02:13:44.434Z,2.40
2023-04-04T02:16:11.305Z,2.30
2023-04-04T02:18:37.909Z,2.30
2023-04-04T02:21:04.520Z,2.30
2023-04-04T02:23:31.094Z,2.30
2023-04-04T02:25:57.706Z,2.20
2023-04-04T02:28:24.481Z,2.20
2023-04-04T02:30:51.132Z,2.30
2023-04-04T02:33:17.711Z,2.20
2023-04-04T02:35:44.353Z,2.20
2023-04-04T02:38:11.165Z,2.20
2023-04-04T02:40:39.749Z,2.20
2023-04-04T02:43:06.693Z,2.10
2023-04-04T02:45:33.368Z,2.10
2023-04-04T02:48:00.006Z,2.10
2023-04-04T02:50:27.069Z,2.10
2023-04-04T02:52:58.873Z,2.10
2023-04-04T02:55:25.823Z,2.10
2023-04-04T02:57:52.605Z,2.00
2023-04-04T03:00:19.595Z,2.00
2023-04-04T03:02:46.599Z,2.00
2023-04-04T03:05:13.437Z,2.00
2023-04-04T03:07:40.325Z,2.00
2023-04-04T03:10:07.387Z,2.00
2023-04-04T03:12:34.007Z,1.90
2023-04-04T03:15:00.657Z,1.90
2023-04-04T03:17:27.486Z,1.90
2023-04-04T03:19:54.121Z,1.80
2023-04-04T03:22:20.756Z,1.80
2023-04-04T03:24:47.295Z,1.70
2023-04-04T03:27:14.009Z,1.70
2023-04-04T03:29:40.907Z,1.70
2023-04-04T03:32:07.693Z,1.70
2023-04-04T03:34:34.417Z,1.60
2023-04-04T03:37:01.041Z,1.60
2023-04-04T03:39:29.606Z,1.60
2023-04-04T03:41:59.329Z,1.60
2023-04-04T03:44:26.097Z,1.50
2023-04-04T03:46:52.727Z,1.50
2023-04-04T03:49:19.661Z,1.50
2023-04-04T03:51:46.421Z,1.50
2023-04-04T03:54:13.155Z,1.40
2023-04-04T03:56:39.807Z,1.40
2023-04-04T03:59:07.130Z,1.40
2023-04-04T04:01:33.807Z,1.30
2023-04-04T04:04:01.319Z,1.30
2023-04-04T04:06:27.966Z,1.30
2023-04-04T04:08:56.311Z,1.30
2023-04-04T04:11:23.212Z,1.20
2023-04-04T04:13:49.832Z,1.20
2023-04-04T04:16:16.494Z,1.10
2023-04-04T04:18:43.329Z,1.10
2023-04-04T04:21:10.276Z,1.10
2023-04-04T04:23:36.936Z,1.10
2023-04-04T04:26:03.689Z,1.00
2023-04-04T04:28:33.670Z,1.00
2023-04-04T04:31:08.363Z,0.90
2023-04-04T04:33:35.524Z,1.00
2023-04-04T04:36:03.389Z,0.90
2023-04-04T04:38:30.600Z,0.90
2023-04-04T04:40:57.716Z,0.90
2023-04-04T04:43:25.075Z,0.90
2023-04-04T04:45:51.869Z,0.90
2023-04-04T04:48:18.549Z,0.80
2023-04-04T04:50:46.073Z,0.80
2023-04-04T04:53:13.618Z,0.80
2023-04-04T04:55:40.514Z,0.80
2023-04-04T04:58:07.169Z,0.80
2023-04-04T05:00:33.789Z,0.80
2023-04-04T05:03:00.869Z,0.70
2023-04-04T05:05:28.199Z,0.70
2023-04-04T05:07:54.873Z,0.70
2023-04-04T05:10:21.587Z,0.70
2023-04-04T05:12:48.288Z,0.70
2023-04-04T05:15:15.014Z,0.70
2023-04-04T05:17:41.718Z,0.70
2023-04-04T05:20:08.862Z,0.60
2023-04-04T05:22:35.496Z,0.60
2023-04-04T05:25:02.438Z,0.60
2023-04-04T05:27:29.099Z,0.60
2023-04-04T05:29:56.025Z,0.60
2023-04-04T05:32:22.747Z,0.60
2023-04-04T05:34:49.414Z,0.60
2023-04-04T05:37:17.165Z,0.60
2023-04-04T05:39:43.825Z,0.60
2023-04-04T05:42:10.643Z,0.60
2023-04-04T05:44:37.365Z,0.60
2023-04-04T05:47:04.068Z,0.60
2023-04-04T05:49:30.980Z,0.60
2023-04-04T05:51:57.563Z,0.60
2023-04-04T05:54:24.205Z,0.60
2023-04-04T05:56:50.901Z,0.70
2023-04-04T05:59:17.915Z,0.70
2023-04-04T06:01:45.029Z,0.70
2023-04-04T06:04:11.798Z,0.70
2023-04-04T06:06:38.932Z,0.70
2023-04-04T06:09:08.670Z,0.80
2023-04-04T06:11:35.725Z,0.80
2023-04-04T06:14:02.621Z,0.80
2023-04-04T06:16:29.494Z,0.80
2023-04-04T06:18:56.194Z,0.90
2023-04-04T06:21:22.813Z,0.90
2023-04-04T06:23:49.412Z,0.90
2023-04-04T06:26:16.654Z,0.90
2023-04-04T06:28:52.611Z,1.00
2023-04-04T06:31:19.278Z,1.00
2023-04-04T06:33:45.946Z,1.00
2023-04-04T06:36:12.605Z,1.00
2023-04-04T06:38:39.236Z,1.10
2023-04-04T06:41:05.835Z,1.20
2023-04-04T06:43:32.454Z,1.30
2023-04-04T06:45:59.895Z,1.40
2023-04-04T06:48:26.532Z,1.50
2023-04-04T06:50:53.238Z,1.50
2023-04-04T06:53:19.895Z,1.70
2023-04-04T06:55:46.581Z,1.70
2023-04-04T06:58:13.200Z,1.80
2023-04-04T07:00:40.011Z,1.90
2023-04-04T07:03:06.966Z,2.00
2023-04-04T07:05:33.678Z,2.10
2023-04-04T07:08:00.501Z,2.20
2023-04-04T07:10:27.482Z,2.30
2023-04-04T07:12:54.174Z,2.40
2023-04-04T07:15:21.729Z,2.50
2023-04-04T07:17:48.502Z,2.50
2023-04-04T07:20:15.586Z,2.60
2023-04-04T07:22:44.285Z,2.70
2023-04-04T07:25:13.089Z,2.80
2023-04-04T07:27:40.868Z,2.90
2023-04-04T07:30:08.355Z,3.00
2023-04-04T07:32:35.492Z,3.20
2023-04-04T07:35:02.575Z,3.30
2023-04-04T07:37:29.168Z,3.30
2023-04-04T07:39:58.202Z,3.40
2023-04-04T07:42:25.299Z,3.50
2023-04-04T07:44:52.932Z,3.60
2023-04-04T07:47:20.525Z,3.60
2023-04-04T07:49:47.227Z,3.90
2023-04-04T07:52:13.847Z,3.90
2023-04-04T07:54:40.596Z,4.00
2023-04-04T07:57:09.584Z,4.00
2023-04-04T07:59:37.198Z,4.00
2023-04-04T08:02:06.711Z,4.10
2023-04-04T08:04:33.385Z,4.20
2023-04-04T08:07:00.012Z,4.30
2023-04-04T08:09:31.256Z,4.40
2023-04-04T08:11:58.102Z,4.40
2023-04-04T08:14:24.687Z,4.50
2023-04-04T08:16:51.782Z,4.50
2023-04-04T08:19:18.522Z,4.60
2023-04-04T08:21:45.523Z,4.70
2023-04-04T08:24:12.926Z,4.80
2023-04-04T08:26:39.536Z,4.80
2023-04-04T08:29:06.373Z,4.90
2023-04-04T08:31:33.285Z,5.00
2023-04-04T08:34:02.081Z,5.10
2023-04-04T08:36:29.248Z,5.10
2023-04-04T08:38:56.179Z,5.20
2023-04-04T08:41:22.820Z,5.40
2023-04-04T08:43:54.626Z,5.50
2023-04-04T08:46:25.639Z,5.50
2023-04-04T08:48:53.008Z,5.60
2023-04-04T08:51:22.779Z,5.80
2023-04-04T08:53:49.408Z,5.90
2023-04-04T08:56:16.084Z,6.00
2023-04-04T08:58:43.026Z,6.00
2023-04-04T09:01:10.764Z,6.10
2023-04-04T09:03:38.210Z,6.20
2023-04-04T09:06:05.368Z,6.30
2023-04-04T09:08:32.047Z,6.40
2023-04-04T09:11:03.441Z,6.40
2023-04-04T09:13:30.179Z,6.60
2023-04-04T09:15:58.331Z,6.60
2023-04-04T09:18:24.977Z,6.60
2023-04-04T09:20:51.652Z,6.80
2023-04-04T09:23:23.890Z,6.80
2023-04-04T09:28:24.391Z,7.00
2023-04-04T09:30:52.288Z,7.10
2023-04-04T09:33:21.639Z,7.10
2023-04-04T09:36:10.080Z,7.20
2023-04-04T09:38:39.398Z,7.20
2023-04-04T09:41:10.789Z,7.30
2023-04-04T09:43:39.189Z,7.40
2023-04-04T09:46:06.723Z,7.50
2023-04-04T09:48:34.836Z,7.60
2023-04-04T09:51:05.577Z,7.60
2023-04-04T09:53:36.458Z,7.60
2023-04-04T09:56:03.367Z,7.80
2023-04-04T09:58:32.577Z,7.80
2023-04-04T10:01:04.588Z,7.90
2023-04-04T10:03:31.488Z,8.00
2023-04-04T10:06:06.414Z,8.00
2023-04-04T10:08:34.989Z,8.00
2023-04-04T10:11:11.312Z,8.10
2023-04-04T10:13:44.671Z,8.40
2023-04-04T10:16:12.072Z,8.40
2023-04-04T10:18:39.649Z,8.40
2023-04-04T10:23:38.854Z,8.60
2023-04-04T10:26:06.004Z,8.60
2023-04-04T10:28:34.317Z,8.60
2023-04-04T10:31:25.247Z,8.60
2023-04-04T10:34:12.849Z,8.70
2023-04-04T10:36:48.965Z,8.90
2023-04-04T10:39:27.251Z,8.80
2023-04-04T10:41:56.364Z,9.10
2023-04-04T10:44:33.516Z,9.00
2023-04-04T10:47:23.362Z,9.20
2023-04-04T10:49:51.603Z,9.30
2023-04-04T10:52:24.048Z,9.40
2023-04-04T10:54:54.589Z,9.50
2023-04-04T10:57:23.227Z,9.80
2023-04-04T11:00:10.508Z,9.80
2023-04-04T11:02:53.576Z,10.00
2023-04-04T11:05:37.482Z,10.20
2023-04-04T11:08:09.834Z,10.00
2023-04-04T11:10:37.228Z,10.10
2023-04-04T11:13:13.809Z,10.10
2023-04-04T11:15:59.945Z,10.10
2023-04-04T11:18:34.221Z,10.20
2023-04-04T11:21:01.636Z,10.40
2023-04-04T11:23:38.624Z,10.60
2023-04-04T11:26:07.445Z,10.60
2023-04-04T11:28:34.048Z,10.60
2023-04-04T11:31:19.620Z,10.80
2023-04-04T11:34:03.672Z,10.90
2023-04-04T11:36:36.419Z,11.00
2023-04-04T11:39:27.254Z,11.20
2023-04-04T11:42:03.765Z,10.90
2023-04-04T11:44:32.624Z,11.10
2023-04-04T11:47:05.965Z,11.00
2023-04-04T11:49:38.192Z,11.30
2023-04-04T11:52:16.449Z,11.00
2023-04-04T11:54:44.496Z,11.50
2023-04-04T11:57:15.886Z,11.60
2023-04-04T11:59:47.640Z,11.60
2023-04-04T12:02:19.224Z,11.80
2023-04-04T12:04:47.346Z,11.60
2023-04-04T12:07:15.908Z,11.60
2023-04-04T12:09:43.469Z,11.40
2023-04-04T12:12:14.662Z,11.90
2023-04-04T12:14:41.452Z,11.90
2023-04-04T12:17:08.623Z,11.70
2023-04-04T12:19:39.841Z,11.80
2023-04-04T12:22:08.180Z,12.20
2023-04-04T12:24:35.946Z,11.70
2023-04-04T12:27:03.602Z,11.80
2023-04-04T12:29:36.196Z,11.70
2023-04-04T12:32:03.995Z,12.00
2023-04-04T12:34:33.185Z,12.10
2023-04-04T12:37:02.673Z,12.30
2023-04-04T12:39:30.198Z,12.70
2023-04-04T12:42:03.977Z,12.70
2023-04-04T12:44:39.368Z,13.10
2023-04-04T12:47:10.595Z,13.00
2023-04-04T12:49:40.902Z,13.30
2023-04-04T12:52:16.403Z,13.50
2023-04-04T12:54:44.483Z,13.80
2023-04-04T12:57:18.169Z,13.80
2023-04-04T12:59:48.368Z,13.80
2023-04-04T13:02:18.232Z,13.40
2023-04-04T13:04:51.032Z,13.30
2023-04-04T13:07:29.497Z,13.60
2023-04-04T13:10:02.772Z,13.60
2023-04-04T13:13:02.409Z,14.10
2023-04-04T13:15:51.107Z,13.90
2023-04-04T13:18:22.208Z,13.90
2023-04-04T13:20:50.315Z,14.10
2023-04-04T13:23:17.687Z,14.30
2023-04-04T13:25:44.371Z,14.30
2023-04-04T13:28:14.420Z,14.10
2023-04-04T13:30:46.630Z,13.50
2023-04-04T13:33:13.757Z,13.90
2023-04-04T13:35:42.915Z,14.40
2023-04-04T13:38:09.861Z,14.60
2023-04-04T13:40:36.943Z,14.80
2023-04-04T13:43:03.834Z,14.40
2023-04-04T13:45:33.825Z,14.60
2023-04-04T13:48:01.049Z,14.60
2023-04-04T13:50:28.209Z,14.90
2023-04-04T13:52:56.535Z,15.10
2023-04-04T13:55:23.273Z,14.60
2023-04-04T13:57:49.924Z,15.10
2023-04-04T14:00:17.312Z,15.60
2023-04-04T14:02:43.974Z,15.10
2023-04-04T14:05:10.992Z,15.40
2023-04-04T14:07:40.677Z,15.50
2023-04-04T14:10:07.987Z,15.30
2023-04-04T14:12:34.652Z,15.40
2023-04-04T14:15:01.287Z,15.30
2023-04-04T14:17:28.064Z,14.70
2023-04-04T14:19:54.697Z,15.30
2023-04-04T14:22:21.435Z,15.40
2023-04-04T14:24:48.157Z,15.40
2023-04-04T14:27:14.729Z,15.70
2023-04-04T14:29:41.385Z,15.50
2023-04-04T14:32:08.036Z,15.40
2023-04-04T14:34:34.696Z,15.40
2023-04-04T14:37:01.340Z,15.60
2023-04-04T14:39:27.956Z,15.70
2023-04-04T14:41:54.553Z,16.20
2023-04-04T14:44:21.808Z,16.00
2023-04-04T14:46:50.888Z,16.40
2023-04-04T14:49:17.958Z,16.80
2023-04-04T14:51:44.780Z,16.50
2023-04-04T14:54:11.384Z,16.50
2023-04-04T14:56:38.058Z,17.10
2023-04-04T14:59:06.592Z,17.40
2023-04-04T15:01:33.381Z,16.90
2023-04-04T15:04:00.016Z,16.30
2023-04-04T15:06:27.218Z,16.20
2023-04-04T15:08:53.834Z,16.30
2023-04-04T15:11:20.511Z,16.20
2023-04-04T15:13:47.167Z,15.80
2023-04-04T15:16:13.869Z,15.40
2023-04-04T15:18:40.646Z,15.80
2023-04-04T15:21:07.257Z,15.80
2023-04-04T15:23:33.894Z,15.50
2023-04-04T15:26:00.581Z,15.70
2023-04-04T15:28:28.476Z,15.50
2023-04-04T15:30:56.479Z,15.20
2023-04-04T15:33:23.151Z,15.20
2023-04-04T15:35:49.729Z,15.20
2023-04-04T15:38:16.344Z,15.00
2023-04-04T15:40:43.109Z,14.90
2023-04-04T15:43:09.817Z,15.20
2023-04-04T15:45:36.495Z,15.40
2023-04-04T15:48:03.261Z,15.40
2023-04-04T15:50:30.052Z,15.50
2023-04-04T15:52:56.674Z,15.40
2023-04-04T15:55:23.903Z,15.20
2023-04-04T15:57:50.747Z,15.40
2023-04-04T16:00:17.710Z,15.10
2023-04-04T16:02:44.464Z,15.00
2023-04-04T16:05:11.286Z,15.00
2023-04-04T16:07:37.987Z,15.10
2023-04-04T16:10:05.234Z,15.10
2023-04-04T16:12:32.130Z,14.80
2023-04-04T16:14:58.801Z,14.90
2023-04-04T16:17:26.120Z,14.60
2023-04-04T16:19:52.780Z,14.30
2023-04-04T16:22:19.372Z,14.40
2023-04-04T16:24:46.261Z,14.40
2023-04-04T16:27:12.971Z,14.10
2023-04-04T16:29:39.620Z,14.20
2023-04-04T16:32:08.149Z,14.10
2023-04-04T16:34:37.414Z,14.20
2023-04-04T16:37:04.235Z,14.20
2023-04-04T16:39:30.860Z,14.10
2023-04-04T16:41:57.855Z,13.80
2023-04-04T16:44:24.518Z,13.70
2023-04-04T16:46:51.200Z,13.70
2023-04-04T16:49:17.901Z,13.40
2023-04-04T16:51:44.620Z,13.00
2023-04-04T16:54:12.507Z,12.90
2023-04-04T16:56:39.298Z,12.70
2023-04-04T16:59:05.999Z,12.90
2023-04-04T17:01:32.838Z,12.60
2023-04-04T17:03:59.634Z,12.70
2023-04-04T17:06:27.417Z,12.60
2023-04-04T17:08:54.116Z,12.60
2023-04-04T17:11:21.019Z,12.70
2023-04-04T17:13:47.728Z,12.50
2023-04-04T17:16:14.460Z,12.40
2023-04-04T17:18:41.236Z,12.50
2023-04-04T17:21:07.820Z,12.40
2023-04-04T17:23:34.400Z,12.30
2023-04-04T17:26:01.059Z,12.10
2023-04-04T17:28:28.042Z,12.10
2023-04-04T17:30:54.715Z,12.20
2023-04-04T17:33:23.181Z,12.10
2023-04-04T17:35:49.875Z,12.00
2023-04-04T17:38:16.537Z,12.00
2023-04-04T17:40:43.236Z,11.80
2023-04-04T17:43:09.848Z,11.80
2023-04-04T17:45:36.567Z,11.70
2023-04-04T17:48:03.882Z,11.60
2023-04-04T17:50:30.595Z,11.60
2023-04-04T17:52:57.338Z,11.40
2023-04-04T17:55:24.223Z,11.50
2023-04-04T17:57:50.986Z,11.30
2023-04-04T18:00:18.412Z,11.30
2023-04-04T18:02:45.217Z,11.20
2023-04-04T18:05:13.274Z,11.10
2023-04-04T18:07:39.992Z,11.00
2023-04-04T18:10:08.387Z,11.00
2023-04-04T18:12:35.915Z,10.90
2023-04-04T18:15:02.891Z,10.90
2023-04-04T18:17:29.755Z,10.90
2023-04-04T18:19:57.549Z,10.70
2023-04-04T18:22:24.334Z,10.70
2023-04-04T18:24:50.974Z,10.50
2023-04-04T18:27:18.001Z,10.40
2023-04-04T18:29:44.656Z,10.40
2023-04-04T18:32:11.517Z,10.30
2023-04-04T18:34:38.490Z,10.20
2023-04-04T18:37:06.368Z,10.10
2023-04-04T18:39:32.970Z,10.20
2023-04-04T18:41:59.721Z,10.00
2023-04-04T18:44:26.425Z,10.00
2023-04-04T18:46:53.107Z,10.00
2023-04-04T18:49:19.807Z,9.90
2023-04-04T18:51:47.579Z,9.80
2023-04-04T18:54:14.280Z,9.80
2023-04-04T18:56:40.881Z,9.60
2023-04-04T18:59:07.949Z,9.60
2023-04-04T19:01:35.941Z,9.60
2023-04-04T19:04:04.119Z,9.60
2023-04-04T19:06:32.849Z,9.60
2023-04-04T19:09:03.962Z,9.50
2023-04-04T19:11:31.681Z,9.40
2023-04-04T19:13:58.322Z,9.30
2023-04-04T19:16:24.905Z,9.30
2023-04-04T19:18:51.850Z,9.20
2023-04-04T19:21:18.514Z,9.20
2023-04-04T19:23:45.674Z,9.10
2023-04-04T19:26:12.345Z,9.00
2023-04-04T19:28:39.049Z,9.00
2023-04-04T19:31:11.101Z,9.00
2023-04-04T19:33:38.548Z,8.70
2023-04-04T19:36:10.765Z,8.70
2023-04-04T19:38:40.171Z,8.80
2023-04-04T19:41:19.008Z,8.60
2023-04-04T19:43:47.055Z,8.60
2023-04-04T19:46:15.950Z,8.70
2023-04-04T19:48:51.205Z,8.60
2023-04-04T19:51:17.812Z,8.60
2023-04-04T19:53:46.977Z,8.60
2023-04-04T19:56:15.391Z,8.50
2023-04-04T19:58:42.685Z,8.60
2023-04-04T20:01:10.983Z,8.50
2023-04-04T20:03:39.651Z,8.50
2023-04-04T20:06:23.037Z,8.40
2023-04-04T20:08:53.942Z,8.40
2023-04-04T20:11:31.836Z,8.40
2023-04-04T20:14:00.156Z,8.30
2023-04-04T20:16:27.977Z,8.30
2023-04-04T20:18:54.749Z,8.30
2023-04-04T20:21:24.155Z,8.20
2023-04-04T20:23:53.196Z,8.20
2023-04-04T20:26:35.552Z,8.30
2023-04-04T20:29:05.271Z,8.20
2023-04-04T20:31:35.454Z,8.00
2023-04-04T20:34:02.131Z,8.00
2023-04-04T20:36:32.854Z,8.00
2023-04-04T20:38:59.700Z,8.00
2023-04-04T20:41:26.694Z,8.10
2023-04-04T20:43:57.978Z,8.00
2023-04-04T20:46:26.462Z,7.90
2023-04-04T20:48:56.455Z,7.90
2023-04-04T20:51:25.716Z,7.90
2023-04-04T20:53:53.464Z,7.80
2023-04-04T20:56:47.592Z,7.80
2023-04-04T22:44:00.630Z,5.60
2023-04-04T22:46:28.796Z,5.50
2023-04-04T22:49:04.875Z,5.40
2023-04-04T22:51:45.433Z,5.40
2023-04-04T22:54:16.616Z,5.40
2023-04-04T22:56:43.700Z,5.40
2023-04-04T22:59:10.743Z,5.30
2023-04-04T23:01:37.548Z,5.30
2023-04-04T23:04:04.466Z,5.30
2023-04-04T23:06:31.431Z,5.30
2023-04-04T23:08:58.911Z,5.10
2023-04-04T23:11:27.135Z,5.10
2023-04-04T23:13:54.057Z,5.10
2023-04-04T23:16:23.374Z,5.00
2023-04-04T23:18:50.089Z,5.00
2023-04-04T23:21:16.674Z,5.00
2023-04-04T23:23:43.316Z,4.90
2023-04-04T23:26:09.979Z,5.00
2023-04-04T23:28:36.644Z,4.90
2023-04-04T23:31:03.639Z,4.80
2023-04-04T23:33:30.302Z,4.80
2023-04-04T23:35:57.005Z,4.80
2023-04-04T23:38:23.671Z,4.70
2023-04-04T23:40:51.047Z,4.70
2023-04-04T23:43:17.772Z,4.70
2023-04-04T23:45:44.637Z,4.70
2023-04-04T23:48:11.231Z,4.60
2023-04-04T23:50:38.049Z,4.70
2023-04-04T23:53:04.744Z,4.80
2023-04-04T23:55:31.462Z,4.80
2023-04-04T23:58:02.375Z,4.80
